Time;durP1;ratioP1;P1;durP2;ratioP2;P2;SDS_P1;SDS_P2;PMS_P1;PMS_P2;Temp;Humidity;BMP_temperature;BMP_pressure;BME280_temperature;BME280_humidity;BME280_pressure;Samples;Min_cycle;Max_cycle;Signal;HPM_P1;HPM_P2
2024/03/24 00:00:05;;;;;;;1.75;1.05;;;12.30;99.90;;;;;;5029045;28;20552;-77
2024/03/24 00:02:31;;;;;;;1.20;1.00;;;12.20;99.90;;;;;;5009197;28;20055;-79
2024/03/24 00:04:56;;;;;;;3.47;1.20;;;12.20;99.90;;;;;;5025410;28;20034;-78
2024/03/24 00:07:22;;;;;;;2.00;1.10;;;12.20;99.90;;;;;;5031612;28;20403;-79
2024/03/24 00:09:47;;;;;;;2.42;0.75;;;12.20;99.90;;;;;;5032021;28;20431;-79
2024/03/24 00:12:13;;;;;;;0.80;0.70;;;12.20;99.90;;;;;;5012330;28;20022;-78
2024/03/24 00:14:39;;;;;;;1.58;0.80;;;12.30;99.90;;;;;;5032195;28;20018;-79
2024/03/24 00:17:04;;;;;;;2.05;0.90;;;12.30;99.90;;;;;;5030769;28;20038;-79
2024/03/24 00:19:30;;;;;;;2.85;0.90;;;12.30;99.90;;;;;;5029411;28;20108;-78
2024/03/24 00:21:55;;;;;;;1.10;0.70;;;12.30;99.90;;;;;;5012514;28;20034;-79
2024/03/24 00:24:21;;;;;;;1.00;0.80;;;12.30;99.90;;;;;;5015141;28;20021;-80
2024/03/24 00:26:46;;;;;;;0.93;0.70;;;12.20;99.90;;;;;;5027646;28;20281;-78
2024/03/24 00:29:12;;;;;;;1.00;0.70;;;12.30;99.90;;;;;;5031187;28;20013;-78
2024/03/24 00:31:37;;;;;;;0.80;0.80;;;12.30;99.90;;;;;;5032971;28;20034;-79
2024/03/24 00:34:03;;;;;;;0.80;0.80;;;12.30;99.90;;;;;;5028479;28;20440;-78
2024/03/24 00:36:28;;;;;;;1.20;0.90;;;12.30;99.90;;;;;;5012392;28;20476;-78
2024/03/24 00:38:54;;;;;;;1.70;0.93;;;12.30;99.90;;;;;;5014340;28;20036;-78
2024/03/24 00:41:19;;;;;;;0.93;0.88;;;12.20;99.90;;;;;;5030916;28;20022;-78
2024/03/24 00:43:45;;;;;;;1.92;0.80;;;12.20;99.90;;;;;;5014536;28;20021;-79
2024/03/24 00:46:11;;;;;;;2.47;0.90;;;12.20;99.90;;;;;;5010712;28;20018;-79
2024/03/24 00:48:36;;;;;;;1.05;0.80;;;12.20;99.90;;;;;;5032792;28;20033;-80
2024/03/24 00:51:02;;;;;;;0.82;0.82;;;12.30;99.90;;;;;;5010644;28;20021;-79
2024/03/24 00:53:27;;;;;;;0.88;0.80;;;12.20;99.90;;;;;;5031864;28;20033;-79
2024/03/24 00:55:54;;;;;;;1.10;0.95;;;12.20;99.90;;;;;;5010184;28;20021;-79
2024/03/24 00:58:19;;;;;;;0.68;0.68;;;12.20;99.90;;;;;;5029448;28;20101;-78
2024/03/24 01:00:46;;;;;;;2.58;1.02;;;12.20;99.90;;;;;;5013424;28;20120;-78
2024/03/24 01:03:11;;;;;;;0.63;0.63;;;12.30;99.90;;;;;;5031821;28;20021;-79
2024/03/24 01:05:37;;;;;;;1.15;0.82;;;12.20;99.90;;;;;;5011481;28;20087;-78
2024/03/24 01:08:03;;;;;;;1.58;1.27;;;12.20;99.90;;;;;;5013333;28;20017;-79
2024/03/24 01:10:29;;;;;;;3.25;1.13;;;12.20;99.90;;;;;;5031125;28;20346;-79
2024/03/24 01:12:54;;;;;;;1.30;0.90;;;12.10;99.90;;;;;;5012960;28;20072;-78
2024/03/24 01:15:20;;;;;;;3.15;1.30;;;12.10;99.90;;;;;;5014278;28;20013;-78
2024/03/24 01:17:46;;;;;;;1.35;1.23;;;12.10;99.90;;;;;;5011073;28;20029;-78
2024/03/24 01:20:14;;;;;;;1.27;1.02;;;12.10;99.90;;;;;;5012375;28;20407;-78
2024/03/24 01:22:40;;;;;;;1.92;1.50;;;12.10;99.90;;;;;;5029473;28;20104;-78
2024/03/24 01:25:07;;;;;;;1.98;1.30;;;12.10;99.90;;;;;;5031484;28;20510;-78
2024/03/24 01:27:33;;;;;;;4.03;1.50;;;12.10;99.90;;;;;;5031512;28;20494;-79
2024/03/24 01:29:58;;;;;;;3.13;1.73;;;12.10;99.90;;;;;;5011313;28;20029;-79
2024/03/24 01:32:24;;;;;;;1.67;1.58;;;12.10;99.90;;;;;;5008649;28;20037;-78
2024/03/24 01:34:50;;;;;;;1.90;1.70;;;12.10;99.90;;;;;;5014037;28;20040;-79
2024/03/24 01:37:15;;;;;;;2.38;2.03;;;12.10;99.90;;;;;;5028763;28;20164;-78
2024/03/24 01:39:48;;;;;;;2.90;1.83;;;12.10;99.90;;;;;;5008174;28;20091;-79
2024/03/24 01:42:14;;;;;;;4.85;1.90;;;12.10;99.90;;;;;;5010713;28;20071;-78
2024/03/24 01:44:40;;;;;;;4.20;2.50;;;12.10;99.90;;;;;;5030227;28;20026;-79
2024/03/24 01:47:07;;;;;;;2.83;2.33;;;12.00;99.90;;;;;;5028529;28;20045;-78
2024/03/24 01:49:33;;;;;;;3.40;2.30;;;12.00;99.90;;;;;;5009216;28;20023;-79
2024/03/24 01:51:58;;;;;;;2.65;2.20;;;12.00;99.90;;;;;;5031053;28;20515;-78
2024/03/24 01:54:25;;;;;;;2.60;1.98;;;12.00;99.90;;;;;;5012780;28;20029;-77
2024/03/24 01:56:51;;;;;;;3.63;2.40;;;12.00;99.90;;;;;;5010355;28;20022;-79
2024/03/24 01:59:17;;;;;;;2.80;1.73;;;12.00;99.90;;;;;;5009836;28;20040;-78
2024/03/24 02:01:43;;;;;;;2.15;1.83;;;12.00;99.90;;;;;;5031396;28;20033;-78
2024/03/24 02:04:09;;;;;;;1.77;1.55;;;12.00;99.90;;;;;;5013315;28;20029;-79
2024/03/24 02:06:35;;;;;;;3.05;1.80;;;12.00;99.90;;;;;;5010768;28;20036;-78
2024/03/24 02:09:01;;;;;;;2.65;1.70;;;12.00;99.90;;;;;;5027431;28;20021;-79
2024/03/24 02:11:28;;;;;;;1.50;1.30;;;12.00;99.90;;;;;;5006368;28;20562;-78
2024/03/24 02:14:02;;;;;;;1.35;1.25;;;11.90;99.90;;;;;;5010353;28;20033;-79
2024/03/24 02:16:28;;;;;;;0.77;0.77;;;11.90;99.90;;;;;;5028430;28;20025;-79
2024/03/24 02:18:54;;;;;;;1.55;1.05;;;11.90;99.90;;;;;;5030185;28;20030;-78
2024/03/24 02:21:19;;;;;;;1.05;1.00;;;11.90;99.90;;;;;;5031285;28;20136;-78
2024/03/24 02:23:45;;;;;;;1.45;1.13;;;11.90;99.90;;;;;;5027304;28;20156;-78
2024/03/24 02:26:10;;;;;;;1.08;0.98;;;11.90;99.90;;;;;;5011824;28;20112;-78
2024/03/24 02:28:36;;;;;;;0.80;0.80;;;12.00;99.90;;;;;;5030669;28;20025;-78
2024/03/24 02:31:02;;;;;;;3.17;0.80;;;11.90;99.90;;;;;;5011581;28;20017;-79
2024/03/24 02:33:28;;;;;;;2.40;1.10;;;12.00;99.90;;;;;;5008633;28;20108;-78
2024/03/24 02:35:53;;;;;;;1.48;1.05;;;12.00;99.90;;;;;;5007384;28;20113;-79
2024/03/24 02:38:19;;;;;;;0.60;0.60;;;12.00;99.90;;;;;;5013052;28;20044;-78
2024/03/24 02:40:48;;;;;;;1.13;0.88;;;12.00;99.90;;;;;;5012930;28;20044;-78
2024/03/24 02:43:14;;;;;;;1.17;0.93;;;12.00;99.90;;;;;;5008865;28;20029;-79
2024/03/24 02:45:39;;;;;;;0.88;0.80;;;12.00;99.90;;;;;;5012975;28;20509;-79
2024/03/24 02:48:05;;;;;;;0.90;0.90;;;12.00;99.90;;;;;;5026315;28;20583;-79
2024/03/24 02:50:31;;;;;;;0.93;0.75;;;12.10;99.90;;;;;;5026444;28;20109;-78
2024/03/24 02:52:56;;;;;;;0.82;0.80;;;12.00;99.90;;;;;;5012118;28;20625;-78
2024/03/24 02:55:25;;;;;;;1.75;0.93;;;12.00;99.90;;;;;;5009894;28;20018;-78
2024/03/24 02:57:51;;;;;;;0.70;0.70;;;12.00;99.90;;;;;;5011527;28;20021;-79
2024/03/24 03:00:17;;;;;;;0.70;0.70;;;12.00;99.90;;;;;;5012417;28;20029;-80
2024/03/24 03:02:43;;;;;;;3.03;0.80;;;12.10;99.90;;;;;;5023196;28;20041;-79
2024/03/24 03:05:09;;;;;;;0.60;0.60;;;12.10;99.90;;;;;;5007067;28;20025;-78
2024/03/24 03:07:35;;;;;;;0.85;0.60;;;12.00;99.90;;;;;;5028594;28;20123;-78
2024/03/24 03:10:04;;;;;;;0.70;0.70;;;12.00;99.90;;;;;;5011434;28;20021;-79
2024/03/24 03:12:29;;;;;;;0.85;0.70;;;12.10;99.90;;;;;;5007445;28;20140;-78
2024/03/24 03:14:55;;;;;;;0.95;0.73;;;12.10;99.90;;;;;;5012201;28;20096;-78
2024/03/24 03:17:20;;;;;;;1.77;0.75;;;12.10;99.90;;;;;;5008193;28;20709;-80
2024/03/24 03:19:46;;;;;;;1.00;0.88;;;12.10;99.90;;;;;;5009566;28;20022;-78
2024/03/24 03:22:11;;;;;;;1.05;0.73;;;12.10;99.90;;;;;;5029005;28;20026;-78
2024/03/24 03:24:37;;;;;;;1.08;0.65;;;12.10;99.90;;;;;;5012262;28;20017;-79
2024/03/24 03:27:03;;;;;;;0.80;0.70;;;12.10;99.90;;;;;;5008926;28;20045;-78
2024/03/24 03:29:28;;;;;;;1.70;0.70;;;12.10;99.90;;;;;;5009776;28;20029;-79
2024/03/24 03:31:54;;;;;;;0.93;0.80;;;12.10;99.90;;;;;;5012161;28;20633;-79
2024/03/24 03:34:20;;;;;;;0.70;0.70;;;12.10;99.90;;;;;;5011649;28;20475;-78
2024/03/24 03:36:45;;;;;;;0.60;0.60;;;12.10;99.90;;;;;;5007476;28;20018;-79
2024/03/24 03:39:11;;;;;;;0.70;0.70;;;12.00;99.90;;;;;;5029608;28;20021;-79
2024/03/24 03:41:36;;;;;;;0.70;0.70;;;12.10;99.90;;;;;;5028025;28;20024;-78
2024/03/24 03:44:02;;;;;;;0.60;0.60;;;12.10;99.90;;;;;;5028793;28;20017;-79
2024/03/24 03:46:27;;;;;;;0.80;0.80;;;12.10;99.90;;;;;;5029704;28;20058;-79
2024/03/24 03:48:53;;;;;;;0.60;0.60;;;12.10;99.90;;;;;;5029453;28;20026;-78
2024/03/24 03:51:27;;;;;;;0.70;0.70;;;12.00;99.90;;;;;;5010213;28;20029;-79
2024/03/24 03:53:55;;;;;;;0.93;0.60;;;12.10;99.90;;;;;;5026709;28;20059;-79
2024/03/24 03:56:20;;;;;;;1.10;0.80;;;12.10;99.90;;;;;;5029434;28;20017;-78
2024/03/24 03:58:46;;;;;;;1.25;0.80;;;12.10;99.90;;;;;;5011450;28;20028;-77
2024/03/24 04:01:12;;;;;;;0.65;0.45;;;12.00;99.90;;;;;;5020504;28;20490;-79
2024/03/24 04:03:37;;;;;;;0.45;0.45;;;12.10;99.90;;;;;;5029293;28;20088;-79
2024/03/24 04:06:04;;;;;;;0.65;0.65;;;12.00;99.90;;;;;;5027029;28;20167;-77
2024/03/24 04:08:29;;;;;;;0.77;0.77;;;12.00;99.90;;;;;;5009439;28;20156;-79
2024/03/24 04:10:55;;;;;;;2.92;0.50;;;12.00;99.90;;;;;;5011892;28;20112;-78
2024/03/24 04:13:20;;;;;;;1.30;0.85;;;12.00;99.90;;;;;;5005257;28;20592;-79
2024/03/24 04:15:46;;;;;;;1.02;0.70;;;12.00;99.90;;;;;;5028976;28;20499;-78
2024/03/24 04:18:12;;;;;;;0.77;0.77;;;12.00;99.90;;;;;;5027378;28;20025;-78
2024/03/24 04:20:37;;;;;;;0.60;0.60;;;12.00;99.90;;;;;;5027627;28;20029;-79
2024/03/24 04:23:04;;;;;;;3.28;0.70;;;12.00;99.90;;;;;;5028650;28;20559;-78
2024/03/24 04:25:29;;;;;;;0.73;0.50;;;12.00;99.90;;;;;;5029494;28;20022;-78
2024/03/24 04:27:55;;;;;;;0.95;0.55;;;12.00;99.90;;;;;;5010969;28;20033;-78
2024/03/24 04:30:21;;;;;;;0.75;0.60;;;12.00;99.90;;;;;;5010583;28;20096;-79
2024/03/24 04:32:46;;;;;;;1.77;0.65;;;12.00;99.90;;;;;;5029056;28;20025;-78
2024/03/24 04:35:12;;;;;;;3.63;0.85;;;12.00;99.90;;;;;;5011250;28;20086;-78
2024/03/24 04:37:38;;;;;;;1.63;0.50;;;12.00;99.90;;;;;;5024580;28;20028;-79
2024/03/24 04:40:08;;;;;;;0.52;0.52;;;12.00;99.90;;;;;;5025276;28;20029;-78
2024/03/24 04:42:34;;;;;;;2.13;0.60;;;12.00;99.90;;;;;;5011363;28;20028;-78
2024/03/24 04:45:02;;;;;;;0.50;0.50;;;12.00;99.90;;;;;;5007979;28;20029;-79
2024/03/24 04:47:29;;;;;;;0.50;0.50;;;12.00;99.90;;;;;;5010523;28;20724;-78
2024/03/24 04:49:55;;;;;;;0.50;0.50;;;12.00;99.90;;;;;;5011162;28;20054;-78
2024/03/24 04:52:20;;;;;;;0.95;0.50;;;11.90;99.90;;;;;;5004611;28;20018;-77
2024/03/24 04:54:46;;;;;;;0.43;0.43;;;12.00;99.90;;;;;;5028489;28;20033;-78
2024/03/24 04:57:11;;;;;;;0.40;0.40;;;12.00;99.90;;;;;;5032254;28;20511;-78
2024/03/24 04:59:37;;;;;;;0.70;0.70;;;12.00;99.90;;;;;;5031454;28;20435;-78
2024/03/24 05:02:03;;;;;;;0.90;0.43;;;12.00;99.90;;;;;;5008303;28;20395;-78
2024/03/24 05:04:29;;;;;;;0.93;0.90;;;12.00;99.90;;;;;;5014260;28;20025;-78
2024/03/24 05:06:54;;;;;;;2.83;0.50;;;12.00;99.90;;;;;;5014724;28;20036;-78
2024/03/24 05:09:22;;;;;;;1.02;0.70;;;11.90;99.90;;;;;;5012805;28;20426;-79
2024/03/24 05:11:47;;;;;;;0.50;0.50;;;11.90;99.90;;;;;;5032406;28;20009;-78
2024/03/24 05:14:13;;;;;;;0.88;0.60;;;12.00;99.90;;;;;;5014200;28;20368;-78
2024/03/24 05:16:38;;;;;;;0.57;0.50;;;12.00;99.90;;;;;;5031242;28;20025;-79
2024/03/24 05:19:05;;;;;;;0.70;0.60;;;11.90;99.90;;;;;;5032091;28;20017;-78
2024/03/24 05:21:31;;;;;;;0.43;0.43;;;11.90;99.90;;;;;;5014363;28;20028;-78
2024/03/24 05:23:57;;;;;;;0.30;0.30;;;11.90;99.90;;;;;;5010772;28;20017;-77
2024/03/24 05:26:22;;;;;;;0.80;0.43;;;11.90;99.90;;;;;;5014446;28;20120;-79
2024/03/24 05:28:48;;;;;;;0.60;0.60;;;11.90;99.90;;;;;;5014091;28;20147;-79
2024/03/24 05:31:14;;;;;;;0.52;0.52;;;11.90;99.90;;;;;;5013924;28;20112;-79
2024/03/24 05:33:40;;;;;;;0.77;0.63;;;11.90;99.90;;;;;;5011454;28;20021;-78
2024/03/24 05:36:06;;;;;;;0.55;0.55;;;12.00;99.90;;;;;;5032036;28;20401;-78
2024/03/24 05:38:31;;;;;;;0.95;0.57;;;12.00;99.90;;;;;;5031070;28;20026;-78
2024/03/24 05:41:02;;;;;;;1.58;0.57;;;12.00;99.90;;;;;;5031834;28;20029;-78
2024/03/24 05:43:28;;;;;;;1.05;0.70;;;12.00;99.90;;;;;;5011256;28;20498;-78
2024/03/24 05:45:57;;;;;;;0.60;0.60;;;11.90;99.90;;;;;;5031442;28;20072;-79
2024/03/24 05:48:23;;;;;;;1.48;0.60;;;11.90;99.90;;;;;;5031426;28;20030;-78
2024/03/24 05:51:03;;;;;;;2.85;0.60;;;11.90;99.90;;;;;;5011089;28;20033;-78
2024/03/24 05:53:29;;;;;;;1.75;0.60;;;11.90;99.90;;;;;;5009405;28;20057;-80
2024/03/24 05:55:59;;;;;;;0.60;0.60;;;11.90;99.90;;;;;;5007396;28;20029;-79
2024/03/24 05:58:25;;;;;;;0.57;0.57;;;11.90;99.90;;;;;;5011672;28;20661;-79
2024/03/24 06:00:51;;;;;;;0.50;0.50;;;11.90;99.90;;;;;;5029077;28;20092;-79
2024/03/24 06:03:16;;;;;;;0.60;0.60;;;11.80;99.90;;;;;;5031035;28;20030;-79
2024/03/24 06:05:42;;;;;;;0.50;0.50;;;11.90;99.90;;;;;;5025295;28;20025;-79
2024/03/24 06:08:10;;;;;;;0.80;0.70;;;11.90;99.90;;;;;;5031109;28;20056;-79
2024/03/24 06:10:37;;;;;;;0.60;0.60;;;11.90;99.90;;;;;;5030651;28;20024;-79
2024/03/24 06:13:03;;;;;;;0.60;0.60;;;11.90;99.90;;;;;;5025265;28;20797;-78
2024/03/24 06:15:28;;;;;;;0.82;0.80;;;11.90;99.90;;;;;;5012899;28;20487;-78
2024/03/24 06:17:54;;;;;;;0.65;0.55;;;11.90;99.90;;;;;;5013310;28;20052;-78
2024/03/24 06:20:20;;;;;;;0.47;0.47;;;11.90;99.90;;;;;;5012082;28;20028;-79
2024/03/24 06:22:45;;;;;;;0.68;0.50;;;11.80;99.90;;;;;;5031198;28;20049;-78
2024/03/24 06:25:11;;;;;;;0.63;0.60;;;11.80;99.90;;;;;;5030534;28;20479;-79
2024/03/24 06:27:37;;;;;;;0.88;0.68;;;11.80;99.90;;;;;;5005287;28;20076;-79
2024/03/24 06:30:03;;;;;;;1.17;0.60;;;11.80;99.90;;;;;;5031053;28;20095;-78
2024/03/24 06:32:29;;;;;;;0.77;0.50;;;11.80;99.90;;;;;;5011383;28;20029;-79
2024/03/24 06:34:54;;;;;;;0.85;0.60;;;11.80;99.90;;;;;;5026578;28;20018;-79
2024/03/24 06:37:20;;;;;;;1.02;0.60;;;11.80;99.90;;;;;;5012787;28;20029;-78
2024/03/24 06:39:45;;;;;;;0.52;0.52;;;11.80;99.90;;;;;;5030441;28;20035;-79
2024/03/24 06:42:11;;;;;;;0.50;0.50;;;11.80;99.90;;;;;;5030262;28;20471;-79
2024/03/24 06:44:37;;;;;;;1.67;0.70;;;11.80;99.90;;;;;;5009708;28;20859;-79
2024/03/24 06:47:04;;;;;;;0.57;0.50;;;11.80;99.90;;;;;;5028761;28;20044;-79
2024/03/24 06:49:30;;;;;;;1.73;0.80;;;11.80;99.90;;;;;;5011317;28;20134;-79
2024/03/24 06:51:55;;;;;;;0.50;0.50;;;11.80;99.90;;;;;;5029912;28;20096;-79
2024/03/24 06:54:21;;;;;;;0.50;0.50;;;11.80;99.90;;;;;;5028516;28;20026;-79
2024/03/24 06:56:46;;;;;;;1.08;0.60;;;11.80;99.90;;;;;;5030540;28;20067;-79
2024/03/24 06:59:12;;;;;;;0.40;0.40;;;11.90;99.90;;;;;;5008480;28;20399;-78
2024/03/24 07:01:37;;;;;;;2.28;0.40;;;11.90;99.90;;;;;;5030402;28;20104;-78
2024/03/24 07:04:04;;;;;;;0.40;0.40;;;11.80;99.90;;;;;;5012485;28;20125;-78
2024/03/24 07:06:32;;;;;;;0.40;0.40;;;11.90;99.90;;;;;;5007027;28;20636;-79
2024/03/24 07:08:58;;;;;;;0.82;0.60;;;11.90;99.90;;;;;;5009494;28;20935;-79
2024/03/24 07:11:23;;;;;;;0.68;0.50;;;11.90;99.90;;;;;;5011796;28;20028;-79
2024/03/24 07:13:49;;;;;;;0.35;0.35;;;11.90;99.90;;;;;;5029963;28;20025;-78
2024/03/24 07:16:14;;;;;;;1.00;0.60;;;11.80;99.90;;;;;;5029378;28;20032;-81
2024/03/24 07:18:40;;;;;;;0.50;0.50;;;11.80;99.90;;;;;;5029715;28;20029;-81
2024/03/24 07:21:07;;;;;;;1.00;0.50;;;11.80;99.90;;;;;;5029800;28;20048;-79
2024/03/24 07:23:33;;;;;;;0.40;0.40;;;11.80;99.90;;;;;;5029045;28;20025;-81
2024/03/24 07:25:58;;;;;;;0.50;0.50;;;11.80;99.90;;;;;;5029276;28;20033;-78
2024/03/24 07:28:24;;;;;;;1.15;0.60;;;11.80;99.90;;;;;;5008200;28;20109;-79
2024/03/24 07:30:50;;;;;;;0.73;0.50;;;11.80;99.90;;;;;;5009066;28;20024;-80
2024/03/24 07:33:15;;;;;;;2.50;0.50;;;11.80;99.90;;;;;;5029422;28;20097;-79
2024/03/24 07:35:41;;;;;;;0.98;0.30;;;11.80;99.90;;;;;;5011556;28;20009;-80
2024/03/24 07:38:07;;;;;;;0.47;0.47;;;11.80;99.90;;;;;;5011070;28;20029;-78
2024/03/24 07:40:33;;;;;;;2.17;0.60;;;11.80;99.90;;;;;;5011673;28;20399;-79
2024/03/24 07:42:59;;;;;;;1.27;0.50;;;11.80;99.90;;;;;;5008601;28;20022;-79
2024/03/24 07:45:25;;;;;;;0.43;0.43;;;11.80;99.90;;;;;;5029216;28;20041;-79
2024/03/24 07:47:51;;;;;;;0.63;0.63;;;11.80;99.90;;;;;;5011113;28;20025;-79
2024/03/24 07:50:17;;;;;;;1.00;0.40;;;11.80;99.90;;;;;;5010861;28;20021;-79
2024/03/24 07:52:42;;;;;;;0.50;0.50;;;11.90;99.90;;;;;;5028692;28;20039;-78
2024/03/24 07:55:08;;;;;;;2.35;0.70;;;11.90;99.90;;;;;;5011128;28;20072;-79
2024/03/24 07:57:34;;;;;;;1.98;0.50;;;11.90;99.90;;;;;;5007745;28;20034;-81
2024/03/24 08:00:00;;;;;;;0.47;0.47;;;12.00;99.90;;;;;;5011779;28;20025;-79
2024/03/24 08:02:26;;;;;;;0.60;0.60;;;12.00;99.90;;;;;;5007379;28;20026;-79
2024/03/24 08:04:51;;;;;;;0.50;0.50;;;12.00;99.90;;;;;;5009770;28;20026;-79
2024/03/24 08:07:17;;;;;;;0.40;0.40;;;12.00;99.90;;;;;;5011489;28;20052;-79
2024/03/24 08:09:42;;;;;;;0.57;0.57;;;12.00;99.90;;;;;;5028920;28;20021;-80
2024/03/24 08:12:08;;;;;;;0.50;0.50;;;12.00;99.90;;;;;;5029287;28;20044;-79
2024/03/24 08:14:33;;;;;;;1.05;0.82;;;12.10;99.90;;;;;;5010976;28;20060;-79
2024/03/24 08:16:59;;;;;;;2.40;0.93;;;12.10;99.90;;;;;;5029134;28;20084;-78
2024/03/24 08:19:25;;;;;;;0.65;0.65;;;12.20;99.90;;;;;;5028860;28;20032;-79
2024/03/24 08:21:51;;;;;;;1.13;0.70;;;12.20;99.90;;;;;;5011298;28;20021;-79
2024/03/24 08:24:17;;;;;;;1.35;0.70;;;12.20;99.90;;;;;;5011196;28;20074;-78
2024/03/24 08:26:43;;;;;;;0.60;0.60;;;12.20;99.90;;;;;;5009202;28;20113;-79
2024/03/24 08:29:09;;;;;;;5.07;0.80;;;12.30;99.90;;;;;;5014374;28;20109;-78
2024/03/24 08:31:35;;;;;;;1.45;0.68;;;12.30;99.90;;;;;;5032255;28;20025;-79
2024/03/24 08:34:00;;;;;;;1.23;0.73;;;12.20;99.90;;;;;;5032363;28;20030;-79
2024/03/24 08:36:26;;;;;;;0.70;0.60;;;12.20;99.90;;;;;;5032592;28;20028;-78
2024/03/24 08:38:52;;;;;;;3.08;0.98;;;12.20;99.90;;;;;;5032695;28;20067;-78
2024/03/24 08:41:17;;;;;;;2.95;1.33;;;12.30;99.90;;;;;;5014297;28;20021;-79
2024/03/24 08:43:43;;;;;;;2.20;0.82;;;12.50;99.90;;;;;;5031394;28;20027;-78
2024/03/24 08:46:09;;;;;;;1.58;0.75;;;12.60;99.90;;;;;;5013635;28;20048;-78
2024/03/24 08:48:34;;;;;;;1.67;0.73;;;12.70;99.90;;;;;;5032376;28;20021;-78
2024/03/24 08:51:00;;;;;;;0.93;0.70;;;12.70;99.90;;;;;;5014984;28;20105;-78
2024/03/24 08:53:26;;;;;;;5.82;1.35;;;12.90;99.90;;;;;;5014673;28;20084;-79
2024/03/24 08:55:51;;;;;;;0.60;0.60;;;13.00;99.90;;;;;;5011483;28;20021;-78
2024/03/24 08:58:17;;;;;;;1.90;0.82;;;13.30;99.90;;;;;;5031587;28;20025;-79
2024/03/24 09:00:45;;;;;;;1.58;0.80;;;13.50;99.90;;;;;;5014105;28;20525;-79
2024/03/24 09:03:11;;;;;;;0.73;0.65;;;13.60;99.90;;;;;;5014248;28;20022;-78
2024/03/24 09:05:36;;;;;;;0.80;0.68;;;13.40;99.90;;;;;;5014568;28;20032;-79
2024/03/24 09:08:02;;;;;;;1.75;0.80;;;13.20;99.90;;;;;;5032261;28;20045;-78
2024/03/24 09:10:27;;;;;;;2.40;0.90;;;13.10;99.90;;;;;;5025625;28;20032;-79
2024/03/24 09:12:53;;;;;;;2.38;1.08;;;13.00;99.90;;;;;;5014288;28;20079;-78
2024/03/24 09:15:19;;;;;;;2.55;0.80;;;12.90;99.90;;;;;;5032452;28;20105;-78
2024/03/24 09:17:44;;;;;;;1.10;1.00;;;13.00;99.90;;;;;;5010575;28;20488;-78
2024/03/24 09:20:10;;;;;;;1.95;0.80;;;13.10;99.90;;;;;;5031966;28;20029;-79
2024/03/24 09:22:36;;;;;;;3.08;0.80;;;13.20;99.90;;;;;;5010751;28;20029;-80
2024/03/24 09:25:01;;;;;;;5.85;1.00;;;13.30;99.90;;;;;;5014562;28;20101;-78
2024/03/24 09:27:27;;;;;;;2.17;0.90;;;13.20;99.90;;;;;;5031739;28;20059;-79
2024/03/24 09:29:53;;;;;;;1.60;0.70;;;13.00;99.90;;;;;;5031820;28;20391;-78
2024/03/24 09:32:18;;;;;;;1.00;0.88;;;12.90;99.90;;;;;;5031627;28;20021;-78
2024/03/24 09:34:44;;;;;;;1.90;0.85;;;12.80;99.90;;;;;;5013908;28;20056;-78
2024/03/24 09:37:09;;;;;;;0.80;0.68;;;12.80;99.90;;;;;;5031892;28;20021;-78
2024/03/24 09:39:35;;;;;;;4.10;0.85;;;12.70;99.90;;;;;;5031054;28;20438;-78
2024/03/24 09:42:04;;;;;;;0.70;0.70;;;12.70;99.90;;;;;;5014302;28;20044;-78
2024/03/24 09:44:32;;;;;;;0.75;0.75;;;12.60;99.90;;;;;;5029498;28;20044;-79
2024/03/24 09:46:59;;;;;;;4.00;0.90;;;12.50;99.90;;;;;;5030229;28;20021;-78
2024/03/24 09:49:26;;;;;;;1.75;0.82;;;12.50;99.90;;;;;;5013421;28;20549;-78
2024/03/24 09:51:53;;;;;;;2.40;0.75;;;12.40;99.90;;;;;;5013158;28;20566;-79
2024/03/24 09:54:19;;;;;;;3.53;0.90;;;12.40;99.90;;;;;;5031222;28;20488;-79
2024/03/24 09:56:46;;;;;;;1.20;0.80;;;12.40;99.90;;;;;;5031319;28;20071;-78
2024/03/24 09:59:11;;;;;;;2.53;0.95;;;12.40;99.90;;;;;;5031130;28;20013;-78
2024/03/24 10:01:40;;;;;;;1.20;1.00;;;12.50;99.90;;;;;;5013751;28;20407;-78
2024/03/24 10:04:06;;;;;;;0.80;0.80;;;12.50;99.90;;;;;;5028285;28;20025;-78
2024/03/24 10:06:32;;;;;;;2.15;0.90;;;12.40;99.90;;;;;;5013571;28;20487;-78
2024/03/24 10:08:58;;;;;;;1.73;1.20;;;12.40;99.90;;;;;;5013311;28;20550;-78
2024/03/24 10:11:28;;;;;;;1.30;1.00;;;12.30;99.90;;;;;;5031419;28;20022;-78
2024/03/24 10:14:01;;;;;;;1.20;0.80;;;12.30;99.90;;;;;;5013319;28;20013;-78
2024/03/24 10:16:27;;;;;;;3.53;1.13;;;12.30;99.90;;;;;;5031180;28;20487;-79
2024/03/24 10:18:52;;;;;;;2.05;1.20;;;12.20;99.90;;;;;;5030838;28;20022;-78
2024/03/24 10:21:19;;;;;;;3.90;1.17;;;12.20;99.90;;;;;;5031016;28;20025;-79
2024/03/24 10:23:45;;;;;;;2.05;1.30;;;12.20;99.90;;;;;;5030982;28;20022;-78
2024/03/24 10:26:21;;;;;;;2.03;1.13;;;12.10;99.90;;;;;;5029966;28;20515;-78
2024/03/24 10:28:50;;;;;;;2.40;1.42;;;12.10;99.90;;;;;;5030532;28;20507;-79
2024/03/24 10:31:16;;;;;;;1.98;1.30;;;12.10;99.90;;;;;;5013289;28;20026;-79
2024/03/24 10:33:42;;;;;;;2.80;1.60;;;12.20;99.90;;;;;;5029533;28;20013;-78
2024/03/24 10:36:08;;;;;;;2.88;1.48;;;12.30;99.90;;;;;;5030750;28;20096;-78
2024/03/24 10:38:36;;;;;;;1.90;1.55;;;12.30;99.90;;;;;;5030767;28;20029;-79
2024/03/24 10:41:06;;;;;;;4.22;1.40;;;12.30;99.90;;;;;;5028989;28;20017;-78
2024/03/24 10:43:32;;;;;;;2.85;1.42;;;12.30;99.90;;;;;;5012352;28;20033;-78
2024/03/24 10:45:58;;;;;;;2.85;1.52;;;12.30;99.90;;;;;;5029895;28;20033;-78
2024/03/24 10:48:29;;;;;;;1.83;1.23;;;12.30;99.90;;;;;;5011103;28;20071;-78
2024/03/24 10:50:56;;;;;;;2.33;1.35;;;12.20;99.90;;;;;;5011816;28;20022;-78
2024/03/24 10:53:25;;;;;;;3.00;1.30;;;12.20;99.90;;;;;;5009656;28;20372;-78
2024/03/24 10:55:52;;;;;;;3.10;1.75;;;12.10;99.90;;;;;;5007333;28;20071;-78
2024/03/24 10:58:21;;;;;;;2.35;1.40;;;12.00;99.90;;;;;;5012487;28;20033;-78
2024/03/24 11:00:48;;;;;;;2.45;1.40;;;12.00;99.90;;;;;;5012647;28;20083;-78
2024/03/24 11:03:15;;;;;;;5.70;1.77;;;12.10;99.90;;;;;;5012364;28;20064;-78
2024/03/24 11:05:48;;;;;;;2.50;1.75;;;12.10;99.90;;;;;;5012533;28;20391;-78
2024/03/24 11:08:16;;;;;;;4.15;1.38;;;12.10;99.90;;;;;;5011942;28;20025;-78
2024/03/24 11:10:49;;;;;;;4.30;1.58;;;12.10;99.90;;;;;;5030083;28;20028;-78
2024/03/24 11:13:18;;;;;;;2.97;1.50;;;12.20;99.90;;;;;;5028043;28;20582;-78
2024/03/24 11:15:48;;;;;;;2.80;1.38;;;12.20;99.90;;;;;;5012152;28;20032;-78
2024/03/24 11:18:29;;;;;;;3.80;1.52;;;12.10;99.90;;;;;;5012219;28;20392;-78
2024/03/24 11:20:55;;;;;;;;;;;12.10;99.90;;;;;;5028491;28;20105;-79
2024/03/24 11:23:22;;;;;;;3.05;1.27;;;12.10;99.90;;;;;;5029286;28;19905;-78
2024/03/24 11:25:56;;;;;;;2.35;1.45;;;12.10;99.90;;;;;;5030013;28;20056;-80
2024/03/24 11:28:43;;;;;;;3.80;1.48;;;12.00;99.90;;;;;;5011703;28;20465;-78
2024/03/24 11:31:22;;;;;;;4.78;1.83;;;12.10;99.90;;;;;;5027018;28;20494;-79
2024/03/24 11:34:11;;;;;;;2.22;1.50;;;12.10;99.90;;;;;;5029610;28;20881;-79
2024/03/24 11:36:41;;;;;;;8.98;2.13;;;12.10;99.90;;;;;;5020193;28;20044;-79
2024/03/24 11:39:11;;;;;;;2.63;1.63;;;12.10;99.90;;;;;;5011376;28;20399;-78
2024/03/24 11:41:50;;;;;;;5.35;1.88;;;12.10;99.90;;;;;;5029938;28;20338;-79
2024/03/24 11:44:17;;;;;;;4.78;1.77;;;12.20;99.90;;;;;;5011949;28;20054;-78
2024/03/24 11:46:42;;;;;;;4.55;1.80;;;12.30;99.90;;;;;;5029416;28;20028;-78
2024/03/24 11:49:11;;;;;;;2.50;1.55;;;12.40;99.90;;;;;;5007497;28;20104;-80
2024/03/24 11:51:37;;;;;;;8.52;2.17;;;12.60;99.90;;;;;;5028104;28;20108;-79
2024/03/24 11:54:04;;;;;;;3.35;1.90;;;12.60;99.90;;;;;;5026430;28;20032;-78
2024/03/24 11:56:31;;;;;;;3.08;1.50;;;12.50;99.90;;;;;;5029328;28;20129;-79
2024/03/24 11:58:57;;;;;;;4.55;1.80;;;12.50;99.90;;;;;;5028986;28;20033;-78
2024/03/24 12:01:24;;;;;;;4.47;1.60;;;12.40;99.90;;;;;;5028784;28;20084;-78
2024/03/24 12:03:51;;;;;;;1.50;1.40;;;12.30;99.90;;;;;;5032714;28;20037;-79
2024/03/24 12:06:18;;;;;;;6.07;1.23;;;12.20;99.90;;;;;;5015889;28;20025;-78
2024/03/24 12:08:46;;;;;;;3.45;1.60;;;12.20;99.90;;;;;;5015025;28;20026;-78
2024/03/24 12:11:16;;;;;;;2.22;1.63;;;12.10;99.90;;;;;;5012822;28;20021;-78
2024/03/24 12:13:45;;;;;;;5.00;1.47;;;12.10;99.90;;;;;;5033343;28;20020;-77
2024/03/24 12:16:18;;;;;;;1.70;1.42;;;12.00;99.90;;;;;;5032405;28;20322;-78
2024/03/24 12:18:44;;;;;;;5.65;1.55;;;12.00;99.90;;;;;;5012489;28;20056;-78
2024/03/24 12:21:09;;;;;;;5.85;1.33;;;12.00;99.90;;;;;;5015308;28;20071;-79
2024/03/24 12:23:36;;;;;;;4.28;1.65;;;12.00;99.90;;;;;;5033230;28;20052;-79
2024/03/24 12:26:02;;;;;;;3.00;1.73;;;11.90;99.90;;;;;;5032717;28;20106;-78
2024/03/24 12:28:28;;;;;;;3.33;1.23;;;11.90;99.90;;;;;;5032824;28;20110;-79
2024/03/24 12:30:59;;;;;;;2.42;1.30;;;11.90;99.90;;;;;;5015451;28;20045;-78
2024/03/24 12:33:25;;;;;;;5.05;1.80;;;11.90;99.90;;;;;;5014178;28;20406;-78
2024/03/24 12:35:53;;;;;;;4.35;1.60;;;11.90;99.90;;;;;;5011071;28;20017;-79
2024/03/24 12:38:19;;;;;;;3.28;1.60;;;11.80;99.90;;;;;;5033031;28;20025;-79
2024/03/24 12:40:53;;;;;;;7.72;1.63;;;11.80;99.90;;;;;;5014728;28;20104;-79
2024/03/24 12:43:29;;;;;;;5.10;1.90;;;11.80;99.90;;;;;;5011378;28;20032;-78